THY10 KLAX-LTFM
Flight info
| Callsign | THY10 |
|---|---|
| Flight time | N/A |
| Altitude | 32000 |
| Route | GMN7 EHF DCT FRA/N0487F310 DCT LLC/N0490F320 DCT REO/N0486F310 DCT YQL/N0485F330 Q896 MEETO DCT 59N100W DCT RT DCT 68N080W/M082F330 DCT MEDPA/M083F350 DCT 74N060W 76N040W 76N020W 72N000E/N0469F350 DCT GISOX DCT MAVIP/N0471F370 DCT TABUT DCT PENOR DCT KARTI N133 ADOXO DCT GOSAK DCT LENOV DCT KEKED DCT BADOR DCT TIMUR L606 GASRU T390 RILEX |
| Aircraft | B77W/H-SDE1E2E3FGHIJ2J3J4J5M1RWXY/LB1D1 |
Departure
| Time | 2026-04-21 18:07 |
|---|---|
| Airport | Los Angeles International Airport (KLAX) |
Arrival
| Time | N/A |
|---|---|
| Airport | İstanbul Airport (LTFM) |
| Time | Latitude | Longitude | Altitude | Speed | Heading |
|---|---|---|---|---|---|
| 2026-04-21 16:27 | 33.94023 | -118.40925 | 98 ft | 0 kts | 263° |
| 2026-04-21 17:56 | 33.94024 | -118.40919 | 99 ft | 3 kts | 263° |
| 2026-04-21 17:56 | 33.94027 | -118.40887 | 99 ft | 4 kts | 263° |
| 2026-04-21 17:56 | 33.94030 | -118.40860 | 97 ft | 3 kts | 262° |
| 2026-04-21 17:56 | 33.94039 | -118.40836 | 96 ft | 4 kts | 206° |
| 2026-04-21 17:57 | 33.94062 | -118.40831 | 96 ft | 4 kts | 173° |
| 2026-04-21 17:57 | 33.94089 | -118.40835 | 92 ft | 3 kts | 173° |
| 2026-04-21 17:57 | 33.94092 | -118.40835 | 91 ft | 0 kts | 173° |
| 2026-04-21 18:00 | 33.94087 | -118.40835 | 97 ft | 3 kts | 173° |
| 2026-04-21 18:00 | 33.94043 | -118.40828 | 99 ft | 10 kts | 173° |
| 2026-04-21 18:01 | 33.93948 | -118.40814 | 98 ft | 17 kts | 173° |
| 2026-04-21 18:01 | 33.93838 | -118.40722 | 100 ft | 21 kts | 125° |
| 2026-04-21 18:01 | 33.93822 | -118.40561 | 102 ft | 19 kts | 84° |
| 2026-04-21 18:01 | 33.93836 | -118.40413 | 101 ft | 17 kts | 83° |
| 2026-04-21 18:02 | 33.93850 | -118.40282 | 100 ft | 15 kts | 83° |
| 2026-04-21 18:02 | 33.93863 | -118.40149 | 103 ft | 19 kts | 83° |
| 2026-04-21 18:02 | 33.93883 | -118.39958 | 104 ft | 27 kts | 83° |
| 2026-04-21 18:02 | 33.93907 | -118.39710 | 100 ft | 31 kts | 83° |
| 2026-04-21 18:03 | 33.93931 | -118.39470 | 99 ft | 27 kts | 83° |
| 2026-04-21 18:03 | 33.93954 | -118.39257 | 100 ft | 24 kts | 82° |
| 2026-04-21 18:03 | 33.93974 | -118.39072 | 99 ft | 20 kts | 83° |
| 2026-04-21 18:03 | 33.93990 | -118.38915 | 99 ft | 18 kts | 83° |
| 2026-04-21 18:04 | 33.94004 | -118.38781 | 99 ft | 15 kts | 83° |
| 2026-04-21 18:04 | 33.94015 | -118.38669 | 102 ft | 12 kts | 83° |
| 2026-04-21 18:04 | 33.94024 | -118.38575 | 101 ft | 10 kts | 83° |
| 2026-04-21 18:04 | 33.94031 | -118.38501 | 101 ft | 8 kts | 83° |
| 2026-04-21 18:05 | 33.94037 | -118.38441 | 103 ft | 6 kts | 83° |
| 2026-04-21 18:05 | 33.94046 | -118.38348 | 101 ft | 20 kts | 83° |
| 2026-04-21 18:05 | 33.94064 | -118.38176 | 99 ft | 20 kts | 83° |
| 2026-04-21 18:05 | 33.94064 | -118.38020 | 100 ft | 17 kts | 120° |
| 2026-04-21 18:06 | 33.93988 | -118.38031 | 100 ft | 11 kts | 251° |
| 2026-04-21 18:06 | 33.93965 | -118.38199 | 103 ft | 42 kts | 262° |
| 2026-04-21 18:06 | 33.93903 | -118.38830 | 101 ft | 109 kts | 264° |
| 2026-04-21 18:06 | 33.93782 | -118.39973 | 103 ft | 164 kts | 263° |
| 2026-04-21 18:07 | 33.93632 | -118.41492 | 120 ft | 202 kts | 264° |
| 2026-04-21 18:07 | 33.93480 | -118.43193 | 532 ft | 206 kts | 260° |
| 2026-04-21 18:07 | 33.93266 | -118.44887 | 1169 ft | 204 kts | 259° |
| 2026-04-21 18:07 | 33.93024 | -118.46563 | 1771 ft | 202 kts | 257° |
| 2026-04-21 18:08 | 33.92741 | -118.48289 | 1941 ft | 219 kts | 256° |
| 2026-04-21 18:08 | 33.92438 | -118.50135 | 2240 ft | 231 kts | 258° |
| 2026-04-21 18:08 | 33.92614 | -118.52098 | 2458 ft | 248 kts | 295° |
| 2026-04-21 18:08 | 33.93816 | -118.53603 | 2810 ft | 262 kts | 333° |
| 2026-04-21 18:09 | 33.95553 | -118.54291 | 3305 ft | 263 kts | 344° |
| 2026-04-21 18:09 | 33.97334 | -118.54908 | 3772 ft | 274 kts | 342° |
| 2026-04-21 18:09 | 33.98558 | -118.55348 | 4159 ft | 275 kts | 341° |
| 2026-04-21 18:09 | 34.00982 | -118.56228 | 5112 ft | 275 kts | 339° |
| 2026-04-21 18:10 | 34.02828 | -118.56905 | 5661 ft | 281 kts | 338° |
| 2026-04-21 18:10 | 34.04707 | -118.57595 | 6254 ft | 285 kts | 338° |
| 2026-04-21 18:10 | 34.06615 | -118.58300 | 6870 ft | 288 kts | 338° |
| 2026-04-21 18:10 | 34.08541 | -118.59017 | 7476 ft | 290 kts | 338° |
| 2026-04-21 18:11 | 34.10478 | -118.59735 | 8049 ft | 293 kts | 338° |
| 2026-04-21 18:11 | 34.12448 | -118.60469 | 8574 ft | 297 kts | 338° |
| 2026-04-21 18:11 | 34.14434 | -118.61202 | 9161 ft | 299 kts | 337° |
| 2026-04-21 18:11 | 34.16432 | -118.61954 | 9670 ft | 304 kts | 337° |
| 2026-04-21 18:12 | 34.18446 | -118.62714 | 10142 ft | 311 kts | 336° |
| 2026-04-21 18:12 | 34.20538 | -118.63505 | 10471 ft | 320 kts | 336° |
| 2026-04-21 18:12 | 34.22687 | -118.64316 | 10922 ft | 326 kts | 336° |
| 2026-04-21 18:12 | 34.24866 | -118.65134 | 11480 ft | 330 kts | 336° |
| 2026-04-21 18:13 | 34.27110 | -118.65983 | 11756 ft | 348 kts | 336° |
| 2026-04-21 18:13 | 34.29486 | -118.66887 | 11947 ft | 370 kts | 336° |
| 2026-04-21 18:13 | 34.32017 | -118.67846 | 12101 ft | 392 kts | 336° |
| 2026-04-21 18:13 | 34.34660 | -118.68841 | 12678 ft | 402 kts | 336° |
| 2026-04-21 18:14 | 34.40111 | -118.70877 | 13941 ft | 420 kts | 336° |
| 2026-04-21 18:14 | 34.42886 | -118.71921 | 14523 ft | 426 kts | 336° |
| 2026-04-21 18:14 | 34.45726 | -118.72990 | 15240 ft | 429 kts | 335° |
| 2026-04-21 18:15 | 34.48588 | -118.74073 | 15927 ft | 433 kts | 335° |
| 2026-04-21 18:15 | 34.51480 | -118.75163 | 16567 ft | 439 kts | 335° |
| 2026-04-21 18:15 | 34.54422 | -118.76273 | 17182 ft | 445 kts | 335° |
| 2026-04-21 18:15 | 34.57394 | -118.77396 | 17820 ft | 450 kts | 335° |
| 2026-04-21 18:16 | 34.60401 | -118.78530 | 18424 ft | 455 kts | 334° |
| 2026-04-21 18:16 | 34.63447 | -118.79696 | 18956 ft | 460 kts | 334° |
| 2026-04-21 18:16 | 34.66470 | -118.80848 | 19492 ft | 464 kts | 335° |
| 2026-04-21 18:16 | 34.69567 | -118.82025 | 20048 ft | 467 kts | 335° |
| 2026-04-21 18:17 | 34.72677 | -118.83201 | 20684 ft | 469 kts | 335° |
| 2026-04-21 18:17 | 34.75796 | -118.84382 | 21264 ft | 471 kts | 335° |
| 2026-04-21 18:17 | 34.78934 | -118.85576 | 21823 ft | 474 kts | 335° |
| 2026-04-21 18:17 | 34.82104 | -118.86769 | 22331 ft | 480 kts | 335° |
| 2026-04-21 18:18 | 34.85326 | -118.87909 | 22802 ft | 485 kts | 336° |
| 2026-04-21 18:18 | 34.88585 | -118.89020 | 23343 ft | 488 kts | 337° |
| 2026-04-21 18:18 | 34.91871 | -118.90120 | 23891 ft | 490 kts | 337° |
| 2026-04-21 18:18 | 34.95160 | -118.91222 | 24419 ft | 491 kts | 336° |
| 2026-04-21 18:19 | 34.98419 | -118.92333 | 24824 ft | 495 kts | 336° |
| 2026-04-21 18:19 | 35.01749 | -118.93480 | 25154 ft | 501 kts | 336° |
| 2026-04-21 18:19 | 35.05128 | -118.94650 | 25453 ft | 507 kts | 336° |
| 2026-04-21 18:19 | 35.08528 | -118.95825 | 25919 ft | 508 kts | 336° |
| 2026-04-21 18:20 | 35.11917 | -118.96990 | 26555 ft | 505 kts | 335° |
| 2026-04-21 18:20 | 35.15296 | -118.98155 | 27074 ft | 505 kts | 335° |
| 2026-04-21 18:20 | 35.18689 | -118.99330 | 27455 ft | 508 kts | 335° |
| 2026-04-21 18:20 | 35.22100 | -119.00517 | 27786 ft | 514 kts | 335° |
| 2026-04-21 18:21 | 35.25570 | -119.01728 | 27955 ft | 522 kts | 335° |
| 2026-04-21 18:21 | 35.29035 | -119.02932 | 28288 ft | 525 kts | 335° |
| 2026-04-21 18:21 | 35.32545 | -119.04149 | 28716 ft | 525 kts | 335° |
| 2026-04-21 18:21 | 35.36064 | -119.05368 | 29132 ft | 526 kts | 335° |
| 2026-04-21 18:22 | 35.39585 | -119.06590 | 29550 ft | 525 kts | 335° |
| 2026-04-21 18:22 | 35.43099 | -119.07813 | 30021 ft | 525 kts | 335° |
| 2026-04-21 18:22 | 35.46617 | -119.09041 | 30370 ft | 526 kts | 335° |
| 2026-04-21 18:22 | 35.50130 | -119.10256 | 30803 ft | 524 kts | 336° |
| 2026-04-21 18:23 | 35.53660 | -119.11381 | 31104 ft | 526 kts | 337° |
| 2026-04-21 18:23 | 35.60729 | -119.13469 | 31070 ft | 524 kts | 338° |
| 2026-04-21 18:24 | 35.67862 | -119.15560 | 31079 ft | 530 kts | 338° |
| 2026-04-21 18:24 | 35.75058 | -119.17720 | 31086 ft | 534 kts | 338° |
| 2026-04-21 18:25 | 35.82283 | -119.19913 | 31103 ft | 535 kts | 338° |
| 2026-04-21 18:25 | 35.89508 | -119.22111 | 31092 ft | 535 kts | 338° |
| 2026-04-21 18:26 | 35.96687 | -119.24298 | 31093 ft | 534 kts | 338° |
| 2026-04-21 18:26 | 36.03888 | -119.26493 | 31124 ft | 534 kts | 338° |
| 2026-04-21 18:27 | 36.11102 | -119.28701 | 31102 ft | 535 kts | 338° |
| 2026-04-21 18:27 | 36.18335 | -119.30920 | 31097 ft | 536 kts | 338° |
| 2026-04-21 18:28 | 36.25588 | -119.33147 | 31101 ft | 538 kts | 338° |
| 2026-04-21 18:28 | 36.32878 | -119.35389 | 31101 ft | 540 kts | 338° |
| 2026-04-21 18:29 | 36.40134 | -119.37624 | 31096 ft | 542 kts | 338° |
| 2026-04-21 18:29 | 36.47473 | -119.39891 | 31090 ft | 546 kts | 338° |
| 2026-04-21 18:30 | 36.54876 | -119.42182 | 31085 ft | 549 kts | 338° |
| 2026-04-21 18:30 | 36.62301 | -119.44482 | 31091 ft | 552 kts | 338° |
| 2026-04-21 18:31 | 36.69730 | -119.46789 | 31067 ft | 555 kts | 339° |
| 2026-04-21 18:31 | 36.77227 | -119.49120 | 31067 ft | 556 kts | 339° |
| 2026-04-21 18:32 | 36.84728 | -119.51458 | 31059 ft | 556 kts | 339° |
| 2026-04-21 18:32 | 36.92209 | -119.53795 | 31054 ft | 555 kts | 338° |
| 2026-04-21 18:33 | 36.99708 | -119.56143 | 31057 ft | 554 kts | 339° |
| 2026-04-21 18:33 | 37.07212 | -119.58189 | 31041 ft | 562 kts | 349° |
| 2026-04-21 18:34 | 37.15100 | -119.58036 | 31035 ft | 572 kts | 5° |
| 2026-04-21 18:34 | 37.22864 | -119.55740 | 31106 ft | 575 kts | 14° |
| 2026-04-21 18:35 | 37.29288 | -119.53515 | 31022 ft | 578 kts | 14° |
| 2026-04-21 18:35 | 37.38397 | -119.50432 | 31044 ft | 582 kts | 13° |
| 2026-04-21 18:36 | 37.46207 | -119.47881 | 31065 ft | 585 kts | 13° |
| 2026-04-21 18:36 | 37.54115 | -119.45320 | 31005 ft | 588 kts | 13° |
| 2026-04-21 18:37 | 37.62032 | -119.42741 | 31021 ft | 587 kts | 13° |
| 2026-04-21 18:37 | 37.68607 | -119.40593 | 30989 ft | 587 kts | 14° |
| 2026-04-21 18:38 | 37.77752 | -119.37588 | 30972 ft | 582 kts | 14° |
| 2026-04-21 18:38 | 37.85575 | -119.35011 | 30920 ft | 580 kts | 14° |
| 2026-04-21 18:39 | 37.93374 | -119.32445 | 30912 ft | 578 kts | 14° |
| 2026-04-21 18:39 | 37.99842 | -119.30311 | 30864 ft | 578 kts | 15° |
| 2026-04-21 18:40 | 38.07603 | -119.27747 | 30876 ft | 576 kts | 14° |
| 2026-04-21 18:40 | 38.15341 | -119.25167 | 30891 ft | 573 kts | 16° |
| 2026-04-21 18:41 | 38.24297 | -119.22193 | 30827 ft | 571 kts | 16° |
| 2026-04-21 18:41 | 38.30683 | -119.20070 | 30817 ft | 571 kts | 16° |
| 2026-04-21 18:42 | 38.38364 | -119.17506 | 30826 ft | 571 kts | 16° |
| 2026-04-21 18:42 | 38.47286 | -119.14518 | 30816 ft | 570 kts | 16° |
| 2026-04-21 18:43 | 38.53716 | -119.12361 | 30770 ft | 571 kts | 16° |
| 2026-04-21 18:43 | 38.61345 | -119.09799 | 30774 ft | 570 kts | 17° |
| 2026-04-21 18:44 | 38.69003 | -119.07219 | 30765 ft | 569 kts | 17° |
| 2026-04-21 18:44 | 38.76660 | -119.04636 | 30773 ft | 569 kts | 17° |
| 2026-04-21 18:45 | 38.84313 | -119.02048 | 30780 ft | 569 kts | 17° |
| 2026-04-21 18:45 | 38.91932 | -118.99465 | 30776 ft | 570 kts | 17° |
| 2026-04-21 18:46 | 38.99608 | -118.96853 | 30770 ft | 572 kts | 17° |
| 2026-04-21 18:46 | 39.07298 | -118.94243 | 30786 ft | 570 kts | 17° |
| 2026-04-21 18:47 | 39.14974 | -118.91618 | 30789 ft | 571 kts | 17° |
| 2026-04-21 18:47 | 39.22649 | -118.88989 | 30786 ft | 571 kts | 17° |
| 2026-04-21 18:48 | 39.30263 | -118.86380 | 30791 ft | 570 kts | 17° |
| 2026-04-21 18:48 | 39.37920 | -118.83750 | 30838 ft | 569 kts | 17° |
| 2026-04-21 18:49 | 39.45563 | -118.81118 | 30844 ft | 568 kts | 17° |
| 2026-04-21 18:49 | 39.51894 | -118.78933 | 30849 ft | 566 kts | 18° |
| 2026-04-21 18:50 | 39.60795 | -118.75854 | 30832 ft | 566 kts | 18° |
| 2026-04-21 18:50 | 39.68353 | -118.73232 | 30805 ft | 566 kts | 18° |
| 2026-04-21 18:51 | 39.75967 | -118.70585 | 30788 ft | 567 kts | 18° |
| 2026-04-21 18:51 | 39.83591 | -118.67929 | 30788 ft | 568 kts | 18° |
| 2026-04-21 18:52 | 39.91239 | -118.65258 | 30808 ft | 568 kts | 17° |
| 2026-04-21 18:52 | 39.98827 | -118.62603 | 30818 ft | 568 kts | 17° |
| 2026-04-21 18:53 | 40.06447 | -118.59930 | 30825 ft | 567 kts | 17° |
| 2026-04-21 18:53 | 40.14074 | -118.57304 | 30785 ft | 567 kts | 15° |
| 2026-04-21 18:54 | 40.21784 | -118.55094 | 30782 ft | 568 kts | 13° |
| 2026-04-21 18:54 | 40.29481 | -118.53037 | 30772 ft | 568 kts | 13° |
| 2026-04-21 18:55 | 40.37229 | -118.50931 | 30773 ft | 569 kts | 14° |
| 2026-04-21 18:55 | 40.44967 | -118.48777 | 30776 ft | 569 kts | 14° |
| 2026-04-21 18:56 | 40.52698 | -118.46605 | 30790 ft | 567 kts | 14° |
| 2026-04-21 18:56 | 40.60426 | -118.44430 | 30796 ft | 568 kts | 14° |
| 2026-04-21 18:57 | 40.68095 | -118.42268 | 30778 ft | 568 kts | 14° |
| 2026-04-21 18:57 | 40.75819 | -118.40090 | 30790 ft | 567 kts | 14° |
| 2026-04-21 18:58 | 40.83533 | -118.37911 | 30782 ft | 567 kts | 14° |
| 2026-04-21 18:58 | 40.91249 | -118.35728 | 30775 ft | 564 kts | 14° |
| 2026-04-21 18:59 | 40.98861 | -118.33564 | 30790 ft | 563 kts | 14° |
| 2026-04-21 18:59 | 41.06515 | -118.31381 | 30788 ft | 563 kts | 14° |
| 2026-04-21 19:00 | 41.14186 | -118.29192 | 30756 ft | 563 kts | 14° |
| 2026-04-21 19:00 | 41.21831 | -118.27002 | 30764 ft | 562 kts | 14° |
| 2026-04-21 19:01 | 41.29486 | -118.24806 | 30759 ft | 562 kts | 14° |
| 2026-04-21 19:01 | 41.37085 | -118.22621 | 30754 ft | 563 kts | 14° |
| 2026-04-21 19:02 | 41.44742 | -118.20415 | 30741 ft | 563 kts | 14° |
| 2026-04-21 19:02 | 41.52397 | -118.18203 | 30745 ft | 563 kts | 14° |
| 2026-04-21 19:03 | 41.60047 | -118.15987 | 30767 ft | 562 kts | 14° |
| 2026-04-21 19:03 | 41.67636 | -118.13784 | 30746 ft | 562 kts | 14° |
| 2026-04-21 19:04 | 41.75278 | -118.11565 | 30731 ft | 562 kts | 14° |
| 2026-04-21 19:04 | 41.82922 | -118.09332 | 30769 ft | 562 kts | 15° |
| 2026-04-21 19:05 | 41.90559 | -118.07094 | 30760 ft | 562 kts | 14° |
| 2026-04-21 19:05 | 41.98204 | -118.04855 | 30749 ft | 562 kts | 14° |
| 2026-04-21 19:06 | 42.05799 | -118.02623 | 30770 ft | 563 kts | 15° |
| 2026-04-21 19:06 | 42.13446 | -118.00370 | 30728 ft | 562 kts | 14° |
| 2026-04-21 19:07 | 42.21069 | -117.98121 | 30738 ft | 558 kts | 14° |
| 2026-04-21 19:07 | 42.28650 | -117.95871 | 30794 ft | 558 kts | 15° |
| 2026-04-21 19:08 | 42.36202 | -117.93632 | 30762 ft | 560 kts | 15° |
| 2026-04-21 19:08 | 42.43814 | -117.91367 | 30788 ft | 559 kts | 14° |
| 2026-04-21 19:09 | 42.51419 | -117.89098 | 30777 ft | 560 kts | 14° |
| 2026-04-21 19:09 | 42.58975 | -117.86560 | 30772 ft | 558 kts | 21° |
| 2026-04-21 19:10 | 42.66088 | -117.82527 | 30763 ft | 552 kts | 30° |
| 2026-04-21 19:10 | 42.72947 | -117.77996 | 30761 ft | 552 kts | 30° |
| 2026-04-21 19:11 | 42.79855 | -117.73455 | 30749 ft | 551 kts | 30° |
| 2026-04-21 19:11 | 42.86782 | -117.68957 | 30742 ft | 551 kts | 29° |
| 2026-04-21 19:12 | 42.93661 | -117.64509 | 30729 ft | 551 kts | 29° |
| 2026-04-21 19:12 | 43.00594 | -117.60012 | 30742 ft | 551 kts | 29° |
| 2026-04-21 19:13 | 43.07519 | -117.55504 | 30747 ft | 551 kts | 29° |
| 2026-04-21 19:13 | 43.14443 | -117.50982 | 30738 ft | 551 kts | 29° |
| 2026-04-21 19:14 | 43.21305 | -117.46492 | 30744 ft | 550 kts | 29° |
| 2026-04-21 19:14 | 43.28201 | -117.41965 | 30743 ft | 549 kts | 29° |
| 2026-04-21 19:15 | 43.35080 | -117.37440 | 30767 ft | 548 kts | 29° |
| 2026-04-21 19:15 | 43.41944 | -117.32913 | 30741 ft | 546 kts | 29° |
| 2026-04-21 19:16 | 43.48786 | -117.28387 | 30755 ft | 546 kts | 29° |
| 2026-04-21 19:16 | 43.55579 | -117.23884 | 30775 ft | 545 kts | 29° |
| 2026-04-21 19:17 | 43.65819 | -117.17075 | 30773 ft | 544 kts | 29° |
| 2026-04-21 19:17 | 43.72632 | -117.12531 | 30785 ft | 544 kts | 29° |
| 2026-04-21 19:18 | 43.79444 | -117.07975 | 30796 ft | 544 kts | 29° |
| 2026-04-21 19:18 | 43.86215 | -117.03435 | 30769 ft | 545 kts | 28° |
| 2026-04-21 19:19 | 43.93035 | -116.98850 | 30803 ft | 544 kts | 28° |
| 2026-04-21 19:19 | 43.99844 | -116.94263 | 30805 ft | 544 kts | 28° |
| 2026-04-21 19:20 | 44.06656 | -116.89661 | 30809 ft | 544 kts | 28° |
| 2026-04-21 19:20 | 44.13458 | -116.85053 | 30795 ft | 543 kts | 28° |
| 2026-04-21 19:21 | 44.20201 | -116.80474 | 30793 ft | 542 kts | 28° |
| 2026-04-21 19:21 | 44.26977 | -116.75860 | 30793 ft | 541 kts | 28° |
| 2026-04-21 19:22 | 44.33734 | -116.71247 | 30802 ft | 540 kts | 28° |
| 2026-04-21 19:22 | 44.40485 | -116.66628 | 30801 ft | 540 kts | 28° |
| 2026-04-21 19:23 | 44.47234 | -116.61997 | 30798 ft | 540 kts | 28° |
| 2026-04-21 19:23 | 44.53941 | -116.57382 | 30802 ft | 541 kts | 28° |
| 2026-04-21 19:24 | 44.60702 | -116.52716 | 30782 ft | 542 kts | 28° |
| 2026-04-21 19:24 | 44.67470 | -116.48036 | 30792 ft | 542 kts | 28° |
| 2026-04-21 19:25 | 44.74235 | -116.43351 | 30800 ft | 542 kts | 28° |
| 2026-04-21 19:25 | 44.80934 | -116.38692 | 30798 ft | 542 kts | 28° |
| 2026-04-21 19:26 | 44.87690 | -116.33979 | 30791 ft | 541 kts | 28° |
| 2026-04-21 19:26 | 44.94435 | -116.29267 | 30789 ft | 540 kts | 28° |
| 2026-04-21 19:27 | 45.01158 | -116.24560 | 30798 ft | 539 kts | 28° |
| 2026-04-21 19:27 | 45.07881 | -116.19832 | 30795 ft | 539 kts | 28° |
| 2026-04-21 19:28 | 45.14543 | -116.15140 | 30809 ft | 538 kts | 28° |
| 2026-04-21 19:28 | 45.21247 | -116.10412 | 30779 ft | 538 kts | 28° |
| 2026-04-21 19:29 | 45.27945 | -116.05669 | 30779 ft | 538 kts | 28° |
| 2026-04-21 19:29 | 45.34651 | -116.00907 | 30745 ft | 539 kts | 28° |
| 2026-04-21 19:30 | 45.41310 | -115.96163 | 30793 ft | 539 kts | 28° |
| 2026-04-21 19:30 | 45.48026 | -115.91373 | 30773 ft | 541 kts | 28° |
| 2026-04-21 19:31 | 45.54740 | -115.86565 | 30755 ft | 540 kts | 28° |
| 2026-04-21 19:31 | 45.61447 | -115.81752 | 30731 ft | 539 kts | 28° |
| 2026-04-21 19:32 | 45.68127 | -115.76944 | 30773 ft | 537 kts | 28° |
| 2026-04-21 19:32 | 45.74765 | -115.72160 | 30747 ft | 537 kts | 28° |
| 2026-04-21 19:33 | 45.81445 | -115.67329 | 30768 ft | 538 kts | 28° |
| 2026-04-21 19:33 | 45.88126 | -115.62478 | 30746 ft | 538 kts | 27° |
| 2026-04-21 19:34 | 45.94810 | -115.57614 | 30747 ft | 538 kts | 28° |
| 2026-04-21 19:34 | 46.01441 | -115.52781 | 30749 ft | 538 kts | 28° |
| 2026-04-21 19:35 | 46.11449 | -115.45457 | 30725 ft | 539 kts | 27° |
| 2026-04-21 19:36 | 46.18122 | -115.40558 | 30747 ft | 537 kts | 27° |
| 2026-04-21 19:36 | 46.24761 | -115.35671 | 30749 ft | 534 kts | 28° |
| 2026-04-21 19:37 | 46.31324 | -115.30823 | 30749 ft | 532 kts | 28° |
| 2026-04-21 19:37 | 46.37896 | -115.25959 | 30759 ft | 530 kts | 27° |
| 2026-04-21 19:38 | 46.44464 | -115.21073 | 30757 ft | 532 kts | 27° |
| 2026-04-21 19:38 | 46.51055 | -115.16177 | 30758 ft | 532 kts | 27° |
| 2026-04-21 19:39 | 46.57668 | -115.11246 | 30907 ft | 538 kts | 27° |
| 2026-04-21 19:39 | 46.60962 | -115.08781 | 31242 ft | 537 kts | 27° |
| 2026-04-21 19:39 | 46.64275 | -115.06295 | 31638 ft | 536 kts | 27° |
| 2026-04-21 19:39 | 46.67574 | -115.03815 | 32178 ft | 531 kts | 27° |
| 2026-04-21 19:40 | 46.70860 | -115.01351 | 32548 ft | 531 kts | 27° |
| 2026-04-21 19:40 | 46.74145 | -114.98888 | 32698 ft | 533 kts | 27° |
| 2026-04-21 19:40 | 46.77447 | -114.96404 | 32772 ft | 536 kts | 27° |
| 2026-04-21 19:41 | 46.84065 | -114.91405 | 32755 ft | 533 kts | 27° |
| 2026-04-21 19:41 | 46.90628 | -114.86433 | 32717 ft | 530 kts | 27° |
| 2026-04-21 19:42 | 46.97123 | -114.81506 | 32741 ft | 528 kts | 27° |
| 2026-04-21 19:42 | 47.03641 | -114.76545 | 32765 ft | 528 kts | 27° |
| 2026-04-21 19:43 | 47.10195 | -114.71543 | 32747 ft | 534 kts | 27° |
| 2026-04-21 19:43 | 47.16797 | -114.66491 | 32744 ft | 537 kts | 27° |
| 2026-04-21 19:44 | 47.23376 | -114.61442 | 32755 ft | 536 kts | 27° |
| 2026-04-21 19:44 | 47.29987 | -114.56354 | 32773 ft | 535 kts | 27° |
| 2026-04-21 19:45 | 47.36571 | -114.51272 | 32768 ft | 533 kts | 27° |
| 2026-04-21 19:45 | 47.43135 | -114.46192 | 32767 ft | 532 kts | 27° |
| 2026-04-21 19:46 | 47.49622 | -114.41154 | 32774 ft | 529 kts | 27° |
| 2026-04-21 19:46 | 47.56129 | -114.36091 | 32812 ft | 528 kts | 27° |
| 2026-04-21 19:47 | 47.62638 | -114.31013 | 32810 ft | 529 kts | 27° |
| 2026-04-21 19:47 | 47.69154 | -114.25912 | 32814 ft | 529 kts | 27° |
| 2026-04-21 19:48 | 47.75623 | -114.20830 | 32809 ft | 530 kts | 27° |
| 2026-04-21 19:48 | 47.82147 | -114.15696 | 32805 ft | 531 kts | 27° |
| 2026-04-21 19:49 | 47.88677 | -114.10544 | 32823 ft | 531 kts | 26° |
| 2026-04-21 19:49 | 47.95207 | -114.05373 | 32814 ft | 532 kts | 27° |